sensor_id;sensor_type;location;lat;lon;timestamp;P1;durP1;ratioP1;P2;durP2;ratioP2
82873;SDS011;72647;51.622;7.540;2024-01-06T00:03:42;17.48;;;9.07;;
82873;SDS011;72647;51.622;7.540;2024-01-06T00:05:42;18.30;;;9.00;;
82873;SDS011;72647;51.622;7.540;2024-01-06T00:07:43;16.50;;;8.00;;
82873;SDS011;72647;51.622;7.540;2024-01-06T00:09:43;19.00;;;8.83;;
82873;SDS011;72647;51.622;7.540;2024-01-06T00:11:43;16.30;;;8.35;;
82873;SDS011;72647;51.622;7.540;2024-01-06T00:13:43;16.83;;;8.37;;
82873;SDS011;72647;51.622;7.540;2024-01-06T00:15:45;18.50;;;9.02;;
82873;SDS011;72647;51.622;7.540;2024-01-06T00:17:45;16.67;;;8.45;;
82873;SDS011;72647;51.622;7.540;2024-01-06T00:19:45;18.80;;;8.53;;
82873;SDS011;72647;51.622;7.540;2024-01-06T00:21:50;16.83;;;8.18;;
82873;SDS011;72647;51.622;7.540;2024-01-06T00:23:50;18.43;;;8.47;;
82873;SDS011;72647;51.622;7.540;2024-01-06T00:25:51;16.73;;;8.45;;
82873;SDS011;72647;51.622;7.540;2024-01-06T00:27:51;17.60;;;8.35;;
82873;SDS011;72647;51.622;7.540;2024-01-06T00:29:51;18.73;;;8.60;;
82873;SDS011;72647;51.622;7.540;2024-01-06T00:31:52;15.43;;;7.93;;
82873;SDS011;72647;51.622;7.540;2024-01-06T00:33:52;17.60;;;9.13;;
82873;SDS011;72647;51.622;7.540;2024-01-06T00:35:52;17.57;;;8.90;;
82873;SDS011;72647;51.622;7.540;2024-01-06T00:37:55;14.93;;;7.93;;
82873;SDS011;72647;51.622;7.540;2024-01-06T00:39:55;15.55;;;8.35;;
82873;SDS011;72647;51.622;7.540;2024-01-06T00:41:55;15.73;;;8.10;;
82873;SDS011;72647;51.622;7.540;2024-01-06T00:43:55;16.33;;;8.33;;
82873;SDS011;72647;51.622;7.540;2024-01-06T00:45:56;18.60;;;8.97;;
82873;SDS011;72647;51.622;7.540;2024-01-06T00:47:56;18.33;;;8.40;;
82873;SDS011;72647;51.622;7.540;2024-01-06T00:49:56;16.33;;;8.80;;
82873;SDS011;72647;51.622;7.540;2024-01-06T00:51:56;16.93;;;8.40;;
82873;SDS011;72647;51.622;7.540;2024-01-06T00:53:57;16.17;;;8.73;;
82873;SDS011;72647;51.622;7.540;2024-01-06T00:55:57;16.83;;;8.50;;
82873;SDS011;72647;51.622;7.540;2024-01-06T00:57:57;19.83;;;9.13;;
82873;SDS011;72647;51.622;7.540;2024-01-06T00:59:57;17.63;;;8.63;;
82873;SDS011;72647;51.622;7.540;2024-01-06T01:01:57;15.50;;;8.17;;
82873;SDS011;72647;51.622;7.540;2024-01-06T01:03:58;17.97;;;8.90;;
82873;SDS011;72647;51.622;7.540;2024-01-06T01:05:58;18.60;;;8.90;;
82873;SDS011;72647;51.622;7.540;2024-01-06T01:07:58;17.50;;;9.07;;
82873;SDS011;72647;51.622;7.540;2024-01-06T01:09:58;16.20;;;7.80;;
82873;SDS011;72647;51.622;7.540;2024-01-06T01:11:59;17.20;;;8.63;;
82873;SDS011;72647;51.622;7.540;2024-01-06T01:13:59;16.00;;;8.57;;
82873;SDS011;72647;51.622;7.540;2024-01-06T01:15:59;15.87;;;7.87;;
82873;SDS011;72647;51.622;7.540;2024-01-06T01:17:59;17.83;;;8.60;;
82873;SDS011;72647;51.622;7.540;2024-01-06T01:20:00;15.77;;;8.43;;
82873;SDS011;72647;51.622;7.540;2024-01-06T01:22:00;20.10;;;9.47;;
82873;SDS011;72647;51.622;7.540;2024-01-06T01:24:00;15.83;;;8.80;;
82873;SDS011;72647;51.622;7.540;2024-01-06T01:26:00;20.23;;;8.80;;
82873;SDS011;72647;51.622;7.540;2024-01-06T01:28:01;18.23;;;9.20;;
82873;SDS011;72647;51.622;7.540;2024-01-06T01:30:01;17.45;;;7.50;;
82873;SDS011;72647;51.622;7.540;2024-01-06T01:32:01;19.47;;;9.03;;
82873;SDS011;72647;51.622;7.540;2024-01-06T01:34:01;18.13;;;9.20;;
82873;SDS011;72647;51.622;7.540;2024-01-06T01:36:03;19.23;;;8.73;;
82873;SDS011;72647;51.622;7.540;2024-01-06T01:38:03;18.40;;;8.85;;
82873;SDS011;72647;51.622;7.540;2024-01-06T01:40:03;18.40;;;9.17;;
82873;SDS011;72647;51.622;7.540;2024-01-06T01:42:04;18.77;;;8.95;;
82873;SDS011;72647;51.622;7.540;2024-01-06T01:44:04;20.87;;;9.73;;
82873;SDS011;72647;51.622;7.540;2024-01-06T01:46:04;19.80;;;8.93;;
82873;SDS011;72647;51.622;7.540;2024-01-06T01:48:05;20.02;;;9.38;;
82873;SDS011;72647;51.622;7.540;2024-01-06T01:50:05;19.85;;;8.98;;
82873;SDS011;72647;51.622;7.540;2024-01-06T01:52:06;19.23;;;8.38;;
82873;SDS011;72647;51.622;7.540;2024-01-06T01:54:06;17.75;;;8.45;;
82873;SDS011;72647;51.622;7.540;2024-01-06T01:56:07;20.85;;;9.25;;
82873;SDS011;72647;51.622;7.540;2024-01-06T01:58:09;18.55;;;9.20;;
82873;SDS011;72647;51.622;7.540;2024-01-06T02:00:10;18.50;;;8.93;;
82873;SDS011;72647;51.622;7.540;2024-01-06T02:02:10;19.15;;;8.73;;
82873;SDS011;72647;51.622;7.540;2024-01-06T02:04:13;17.83;;;8.73;;
82873;SDS011;72647;51.622;7.540;2024-01-06T02:06:13;21.20;;;9.48;;
82873;SDS011;72647;51.622;7.540;2024-01-06T02:08:13;19.98;;;9.75;;
82873;SDS011;72647;51.622;7.540;2024-01-06T02:10:14;19.60;;;8.70;;
82873;SDS011;72647;51.622;7.540;2024-01-06T02:12:14;21.20;;;9.93;;
82873;SDS011;72647;51.622;7.540;2024-01-06T02:14:14;19.23;;;9.77;;
82873;SDS011;72647;51.622;7.540;2024-01-06T02:16:14;18.00;;;8.90;;
82873;SDS011;72647;51.622;7.540;2024-01-06T02:18:16;18.80;;;8.93;;
82873;SDS011;72647;51.622;7.540;2024-01-06T02:20:16;21.67;;;8.77;;
82873;SDS011;72647;51.622;7.540;2024-01-06T02:22:19;22.73;;;9.98;;
82873;SDS011;72647;51.622;7.540;2024-01-06T02:24:20;21.10;;;9.37;;
82873;SDS011;72647;51.622;7.540;2024-01-06T02:26:20;20.25;;;9.02;;
82873;SDS011;72647;51.622;7.540;2024-01-06T02:28:21;23.57;;;9.80;;
82873;SDS011;72647;51.622;7.540;2024-01-06T02:30:21;19.57;;;9.27;;
82873;SDS011;72647;51.622;7.540;2024-01-06T02:32:21;21.45;;;9.65;;
82873;SDS011;72647;51.622;7.540;2024-01-06T02:34:21;21.20;;;9.60;;
82873;SDS011;72647;51.622;7.540;2024-01-06T02:36:21;21.77;;;9.30;;
82873;SDS011;72647;51.622;7.540;2024-01-06T02:38:22;21.73;;;9.43;;
82873;SDS011;72647;51.622;7.540;2024-01-06T02:40:22;20.73;;;10.23;;
82873;SDS011;72647;51.622;7.540;2024-01-06T02:42:22;18.00;;;8.40;;
82873;SDS011;72647;51.622;7.540;2024-01-06T02:44:24;18.77;;;8.75;;
82873;SDS011;72647;51.622;7.540;2024-01-06T02:46:24;20.40;;;9.03;;
82873;SDS011;72647;51.622;7.540;2024-01-06T02:48:24;18.63;;;8.63;;
82873;SDS011;72647;51.622;7.540;2024-01-06T02:50:24;17.90;;;8.45;;
82873;SDS011;72647;51.622;7.540;2024-01-06T02:52:27;19.07;;;8.37;;
82873;SDS011;72647;51.622;7.540;2024-01-06T02:54:27;19.35;;;8.48;;
82873;SDS011;72647;51.622;7.540;2024-01-06T02:56:28;17.10;;;7.73;;
82873;SDS011;72647;51.622;7.540;2024-01-06T02:58:28;14.73;;;6.90;;
82873;SDS011;72647;51.622;7.540;2024-01-06T03:00:28;17.80;;;6.73;;
82873;SDS011;72647;51.622;7.540;2024-01-06T03:02:28;15.57;;;7.30;;
82873;SDS011;72647;51.622;7.540;2024-01-06T03:04:28;17.23;;;6.95;;
82873;SDS011;72647;51.622;7.540;2024-01-06T03:06:29;19.57;;;8.03;;
82873;SDS011;72647;51.622;7.540;2024-01-06T03:08:29;18.40;;;7.65;;
82873;SDS011;72647;51.622;7.540;2024-01-06T03:10:31;15.57;;;8.00;;
82873;SDS011;72647;51.622;7.540;2024-01-06T03:12:31;15.80;;;6.80;;
82873;SDS011;72647;51.622;7.540;2024-01-06T03:14:34;16.27;;;6.93;;
82873;SDS011;72647;51.622;7.540;2024-01-06T03:16:34;17.40;;;7.55;;
82873;SDS011;72647;51.622;7.540;2024-01-06T03:18:34;13.67;;;6.97;;
82873;SDS011;72647;51.622;7.540;2024-01-06T03:20:35;15.30;;;6.93;;
82873;SDS011;72647;51.622;7.540;2024-01-06T03:22:36;17.47;;;7.40;;
82873;SDS011;72647;51.622;7.540;2024-01-06T03:24:38;20.13;;;7.68;;
82873;SDS011;72647;51.622;7.540;2024-01-06T03:26:39;16.73;;;7.25;;
82873;SDS011;72647;51.622;7.540;2024-01-06T03:28:40;17.63;;;8.17;;
82873;SDS011;72647;51.622;7.540;2024-01-06T03:30:40;16.03;;;7.23;;
82873;SDS011;72647;51.622;7.540;2024-01-06T03:32:40;17.13;;;7.27;;
82873;SDS011;72647;51.622;7.540;2024-01-06T03:34:40;20.10;;;8.13;;
82873;SDS011;72647;51.622;7.540;2024-01-06T03:36:41;16.15;;;7.18;;
82873;SDS011;72647;51.622;7.540;2024-01-06T03:38:41;15.97;;;7.20;;
82873;SDS011;72647;51.622;7.540;2024-01-06T03:40:41;17.10;;;6.90;;
82873;SDS011;72647;51.622;7.540;2024-01-06T03:42:41;19.57;;;7.20;;
82873;SDS011;72647;51.622;7.540;2024-01-06T03:44:42;16.23;;;6.73;;
82873;SDS011;72647;51.622;7.540;2024-01-06T03:46:42;17.65;;;6.68;;
82873;SDS011;72647;51.622;7.540;2024-01-06T03:48:42;14.40;;;6.07;;
82873;SDS011;72647;51.622;7.540;2024-01-06T03:50:42;12.70;;;6.23;;
82873;SDS011;72647;51.622;7.540;2024-01-06T03:52:43;15.20;;;6.80;;
82873;SDS011;72647;51.622;7.540;2024-01-06T03:54:43;14.97;;;6.67;;
82873;SDS011;72647;51.622;7.540;2024-01-06T03:56:43;16.17;;;6.20;;
82873;SDS011;72647;51.622;7.540;2024-01-06T03:58:43;15.97;;;6.80;;
82873;SDS011;72647;51.622;7.540;2024-01-06T04:00:43;15.00;;;6.13;;
82873;SDS011;72647;51.622;7.540;2024-01-06T04:02:43;15.70;;;6.73;;
82873;SDS011;72647;51.622;7.540;2024-01-06T04:04:44;14.27;;;6.10;;
82873;SDS011;72647;51.622;7.540;2024-01-06T04:06:44;16.10;;;6.70;;
82873;SDS011;72647;51.622;7.540;2024-01-06T04:08:44;14.97;;;6.23;;
82873;SDS011;72647;51.622;7.540;2024-01-06T04:10:44;15.83;;;6.60;;
82873;SDS011;72647;51.622;7.540;2024-01-06T04:12:44;16.30;;;7.27;;
82873;SDS011;72647;51.622;7.540;2024-01-06T04:14:45;18.90;;;7.00;;
82873;SDS011;72647;51.622;7.540;2024-01-06T04:16:45;15.67;;;6.90;;
82873;SDS011;72647;51.622;7.540;2024-01-06T04:18:45;15.65;;;6.35;;
82873;SDS011;72647;51.622;7.540;2024-01-06T04:20:45;18.70;;;6.90;;
82873;SDS011;72647;51.622;7.540;2024-01-06T04:22:46;18.60;;;7.70;;
82873;SDS011;72647;51.622;7.540;2024-01-06T04:24:46;21.27;;;7.85;;
82873;SDS011;72647;51.622;7.540;2024-01-06T04:26:47;22.10;;;7.77;;
82873;SDS011;72647;51.622;7.540;2024-01-06T04:28:47;20.40;;;7.88;;
82873;SDS011;72647;51.622;7.540;2024-01-06T04:30:47;21.30;;;8.07;;
82873;SDS011;72647;51.622;7.540;2024-01-06T04:32:48;21.30;;;8.40;;
82873;SDS011;72647;51.622;7.540;2024-01-06T04:34:48;24.93;;;8.80;;
82873;SDS011;72647;51.622;7.540;2024-01-06T04:36:48;22.48;;;8.23;;
82873;SDS011;72647;51.622;7.540;2024-01-06T04:38:51;23.67;;;8.38;;
82873;SDS011;72647;51.622;7.540;2024-01-06T04:40:51;23.90;;;9.20;;
82873;SDS011;72647;51.622;7.540;2024-01-06T04:42:51;24.17;;;9.17;;
82873;SDS011;72647;51.622;7.540;2024-01-06T04:44:51;25.90;;;9.10;;
82873;SDS011;72647;51.622;7.540;2024-01-06T04:46:51;25.17;;;9.33;;
82873;SDS011;72647;51.622;7.540;2024-01-06T04:48:52;25.03;;;8.97;;
82873;SDS011;72647;51.622;7.540;2024-01-06T04:50:52;24.47;;;8.20;;
82873;SDS011;72647;51.622;7.540;2024-01-06T04:52:52;23.50;;;7.22;;
82873;SDS011;72647;51.622;7.540;2024-01-06T04:54:52;25.27;;;8.47;;
82873;SDS011;72647;51.622;7.540;2024-01-06T04:56:52;27.02;;;9.13;;
82873;SDS011;72647;51.622;7.540;2024-01-06T04:58:53;26.27;;;8.80;;
82873;SDS011;72647;51.622;7.540;2024-01-06T05:00:53;25.80;;;8.57;;
82873;SDS011;72647;51.622;7.540;2024-01-06T05:02:53;27.05;;;9.07;;
82873;SDS011;72647;51.622;7.540;2024-01-06T05:04:53;24.60;;;8.70;;
82873;SDS011;72647;51.622;7.540;2024-01-06T05:06:53;22.93;;;8.63;;
82873;SDS011;72647;51.622;7.540;2024-01-06T05:08:54;28.45;;;8.98;;
82873;SDS011;72647;51.622;7.540;2024-01-06T05:10:55;24.73;;;7.77;;
82873;SDS011;72647;51.622;7.540;2024-01-06T05:12:55;24.00;;;7.80;;
82873;SDS011;72647;51.622;7.540;2024-01-06T05:14:55;24.00;;;7.90;;
82873;SDS011;72647;51.622;7.540;2024-01-06T05:16:55;19.97;;;7.73;;
82873;SDS011;72647;51.622;7.540;2024-01-06T05:18:55;24.50;;;8.43;;
82873;SDS011;72647;51.622;7.540;2024-01-06T05:20:55;21.43;;;7.23;;
82873;SDS011;72647;51.622;7.540;2024-01-06T05:22:56;22.75;;;8.70;;
82873;SDS011;72647;51.622;7.540;2024-01-06T05:24:56;23.87;;;8.10;;
82873;SDS011;72647;51.622;7.540;2024-01-06T05:26:57;22.03;;;8.37;;
82873;SDS011;72647;51.622;7.540;2024-01-06T05:28:57;18.75;;;6.75;;
82873;SDS011;72647;51.622;7.540;2024-01-06T05:30:57;20.43;;;7.73;;
82873;SDS011;72647;51.622;7.540;2024-01-06T05:32:57;22.90;;;8.57;;
82873;SDS011;72647;51.622;7.540;2024-01-06T05:34:58;19.08;;;7.15;;
82873;SDS011;72647;51.622;7.540;2024-01-06T05:36:58;20.27;;;6.87;;
82873;SDS011;72647;51.622;7.540;2024-01-06T05:38:58;19.50;;;7.33;;
82873;SDS011;72647;51.622;7.540;2024-01-06T05:41:01;19.65;;;7.32;;
82873;SDS011;72647;51.622;7.540;2024-01-06T05:43:02;19.48;;;8.02;;
82873;SDS011;72647;51.622;7.540;2024-01-06T05:45:02;19.63;;;7.03;;
82873;SDS011;72647;51.622;7.540;2024-01-06T05:47:02;21.50;;;7.22;;
82873;SDS011;72647;51.622;7.540;2024-01-06T05:49:03;24.60;;;9.15;;
82873;SDS011;72647;51.622;7.540;2024-01-06T05:53:04;16.77;;;7.07;;
82873;SDS011;72647;51.622;7.540;2024-01-06T05:55:04;20.10;;;6.63;;
82873;SDS011;72647;51.622;7.540;2024-01-06T05:57:05;19.33;;;6.32;;
82873;SDS011;72647;51.622;7.540;2024-01-06T05:59:06;22.00;;;7.93;;
82873;SDS011;72647;51.622;7.540;2024-01-06T06:01:06;18.25;;;7.07;;
82873;SDS011;72647;51.622;7.540;2024-01-06T06:03:07;18.60;;;6.95;;
82873;SDS011;72647;51.622;7.540;2024-01-06T06:05:07;22.38;;;8.02;;
82873;SDS011;72647;51.622;7.540;2024-01-06T06:07:08;19.73;;;7.83;;
82873;SDS011;72647;51.622;7.540;2024-01-06T06:09:08;22.53;;;7.67;;
82873;SDS011;72647;51.622;7.540;2024-01-06T06:11:10;19.88;;;7.47;;
82873;SDS011;72647;51.622;7.540;2024-01-06T06:13:13;20.20;;;7.35;;
82873;SDS011;72647;51.622;7.540;2024-01-06T06:15:13;18.80;;;7.53;;
82873;SDS011;72647;51.622;7.540;2024-01-06T06:17:13;19.43;;;7.33;;
82873;SDS011;72647;51.622;7.540;2024-01-06T06:19:13;19.40;;;6.93;;
82873;SDS011;72647;51.622;7.540;2024-01-06T06:21:13;20.07;;;7.53;;
82873;SDS011;72647;51.622;7.540;2024-01-06T06:23:14;21.37;;;6.57;;
82873;SDS011;72647;51.622;7.540;2024-01-06T06:25:14;21.50;;;6.57;;
82873;SDS011;72647;51.622;7.540;2024-01-06T06:27:14;20.67;;;7.03;;
82873;SDS011;72647;51.622;7.540;2024-01-06T06:29:14;20.13;;;7.47;;
82873;SDS011;72647;51.622;7.540;2024-01-06T06:31:15;16.83;;;5.87;;
82873;SDS011;72647;51.622;7.540;2024-01-06T06:33:15;18.07;;;6.63;;
82873;SDS011;72647;51.622;7.540;2024-01-06T06:35:15;19.47;;;6.47;;
82873;SDS011;72647;51.622;7.540;2024-01-06T06:37:15;21.92;;;6.97;;
82873;SDS011;72647;51.622;7.540;2024-01-06T06:39:16;20.65;;;7.30;;
82873;SDS011;72647;51.622;7.540;2024-01-06T06:41:16;17.53;;;6.27;;
82873;SDS011;72647;51.622;7.540;2024-01-06T06:43:16;18.87;;;7.80;;
82873;SDS011;72647;51.622;7.540;2024-01-06T06:45:16;17.23;;;5.95;;
82873;SDS011;72647;51.622;7.540;2024-01-06T06:47:19;20.95;;;7.20;;
82873;SDS011;72647;51.622;7.540;2024-01-06T06:49:19;18.63;;;6.40;;
82873;SDS011;72647;51.622;7.540;2024-01-06T06:51:19;20.40;;;6.67;;
82873;SDS011;72647;51.622;7.540;2024-01-06T06:53:24;17.23;;;6.03;;
82873;SDS011;72647;51.622;7.540;2024-01-06T06:55:25;20.05;;;6.63;;
82873;SDS011;72647;51.622;7.540;2024-01-06T06:57:25;20.80;;;6.57;;
82873;SDS011;72647;51.622;7.540;2024-01-06T06:59:25;19.67;;;6.67;;
82873;SDS011;72647;51.622;7.540;2024-01-06T07:01:25;21.73;;;6.53;;
82873;SDS011;72647;51.622;7.540;2024-01-06T07:03:25;17.77;;;6.53;;
82873;SDS011;72647;51.622;7.540;2024-01-06T07:05:26;18.27;;;6.20;;
82873;SDS011;72647;51.622;7.540;2024-01-06T07:07:27;23.70;;;6.77;;
82873;SDS011;72647;51.622;7.540;2024-01-06T07:09:27;21.87;;;6.40;;
82873;SDS011;72647;51.622;7.540;2024-01-06T07:11:27;18.47;;;6.63;;
82873;SDS011;72647;51.622;7.540;2024-01-06T07:13:27;19.80;;;6.90;;
82873;SDS011;72647;51.622;7.540;2024-01-06T07:15:27;20.13;;;7.23;;
82873;SDS011;72647;51.622;7.540;2024-01-06T07:17:28;17.97;;;6.33;;
82873;SDS011;72647;51.622;7.540;2024-01-06T07:19:28;19.02;;;6.78;;
82873;SDS011;72647;51.622;7.540;2024-01-06T07:21:28;16.70;;;5.97;;
82873;SDS011;72647;51.622;7.540;2024-01-06T07:23:28;17.97;;;6.23;;
82873;SDS011;72647;51.622;7.540;2024-01-06T07:25:28;15.40;;;5.50;;
82873;SDS011;72647;51.622;7.540;2024-01-06T07:29:31;14.48;;;5.63;;
82873;SDS011;72647;51.622;7.540;2024-01-06T07:31:31;15.43;;;6.15;;
82873;SDS011;72647;51.622;7.540;2024-01-06T07:33:32;20.60;;;6.50;;
82873;SDS011;72647;51.622;7.540;2024-01-06T07:35:32;18.07;;;6.10;;
82873;SDS011;72647;51.622;7.540;2024-01-06T07:37:32;17.55;;;6.18;;
82873;SDS011;72647;51.622;7.540;2024-01-06T07:39:33;17.15;;;6.70;;
82873;SDS011;72647;51.622;7.540;2024-01-06T07:41:34;18.27;;;6.57;;
82873;SDS011;72647;51.622;7.540;2024-01-06T07:43:34;14.60;;;5.23;;
82873;SDS011;72647;51.622;7.540;2024-01-06T07:45:34;14.73;;;5.53;;
82873;SDS011;72647;51.622;7.540;2024-01-06T07:47:34;14.27;;;4.87;;
82873;SDS011;72647;51.622;7.540;2024-01-06T07:49:34;15.60;;;6.13;;
82873;SDS011;72647;51.622;7.540;2024-01-06T07:51:35;14.33;;;4.37;;
82873;SDS011;72647;51.622;7.540;2024-01-06T07:53:35;14.07;;;5.07;;
82873;SDS011;72647;51.622;7.540;2024-01-06T07:55:35;14.07;;;5.10;;
82873;SDS011;72647;51.622;7.540;2024-01-06T07:57:35;9.77;;;3.60;;
82873;SDS011;72647;51.622;7.540;2024-01-06T07:59:35;14.17;;;5.03;;
82873;SDS011;72647;51.622;7.540;2024-01-06T08:01:36;15.95;;;5.15;;
82873;SDS011;72647;51.622;7.540;2024-01-06T08:03:36;14.70;;;5.00;;
82873;SDS011;72647;51.622;7.540;2024-01-06T08:05:36;12.67;;;4.77;;
82873;SDS011;72647;51.622;7.540;2024-01-06T08:07:37;14.20;;;4.68;;
82873;SDS011;72647;51.622;7.540;2024-01-06T08:09:37;17.20;;;4.73;;
82873;SDS011;72647;51.622;7.540;2024-01-06T08:11:37;12.73;;;3.97;;
82873;SDS011;72647;51.622;7.540;2024-01-06T08:13:40;13.38;;;4.20;;
82873;SDS011;72647;51.622;7.540;2024-01-06T08:15:40;12.40;;;4.07;;
82873;SDS011;72647;51.622;7.540;2024-01-06T08:17:40;12.07;;;3.70;;
82873;SDS011;72647;51.622;7.540;2024-01-06T08:19:41;9.23;;;3.47;;
82873;SDS011;72647;51.622;7.540;2024-01-06T08:21:41;9.13;;;3.10;;
82873;SDS011;72647;51.622;7.540;2024-01-06T08:23:42;9.37;;;3.20;;
82873;SDS011;72647;51.622;7.540;2024-01-06T08:25:42;8.93;;;3.33;;
82873;SDS011;72647;51.622;7.540;2024-01-06T08:27:45;7.55;;;2.83;;
82873;SDS011;72647;51.622;7.540;2024-01-06T08:29:45;8.40;;;3.17;;
82873;SDS011;72647;51.622;7.540;2024-01-06T08:31:45;8.73;;;3.40;;
82873;SDS011;72647;51.622;7.540;2024-01-06T08:33:46;7.35;;;3.03;;
82873;SDS011;72647;51.622;7.540;2024-01-06T08:35:46;9.17;;;3.07;;
82873;SDS011;72647;51.622;7.540;2024-01-06T08:37:46;10.13;;;3.20;;
82873;SDS011;72647;51.622;7.540;2024-01-06T08:39:46;8.83;;;3.20;;
82873;SDS011;72647;51.622;7.540;2024-01-06T08:41:47;6.43;;;2.92;;
82873;SDS011;72647;51.622;7.540;2024-01-06T08:43:48;6.78;;;2.90;;
82873;SDS011;72647;51.622;7.540;2024-01-06T08:45:48;7.73;;;2.83;;
82873;SDS011;72647;51.622;7.540;2024-01-06T08:47:48;8.43;;;3.00;;
82873;SDS011;72647;51.622;7.540;2024-01-06T08:49:48;7.00;;;2.67;;
82873;SDS011;72647;51.622;7.540;2024-01-06T08:51:49;7.03;;;3.23;;
82873;SDS011;72647;51.622;7.540;2024-01-06T08:53:49;9.47;;;3.13;;
82873;SDS011;72647;51.622;7.540;2024-01-06T08:55:49;9.18;;;3.15;;
82873;SDS011;72647;51.622;7.540;2024-01-06T08:57:51;9.73;;;3.90;;
82873;SDS011;72647;51.622;7.540;2024-01-06T08:59:51;7.78;;;3.20;;
82873;SDS011;72647;51.622;7.540;2024-01-06T09:01:51;9.83;;;3.30;;
82873;SDS011;72647;51.622;7.540;2024-01-06T09:03:52;11.68;;;4.13;;
82873;SDS011;72647;51.622;7.540;2024-01-06T09:05:54;10.40;;;3.63;;
82873;SDS011;72647;51.622;7.540;2024-01-06T09:07:55;10.73;;;4.47;;
82873;SDS011;72647;51.622;7.540;2024-01-06T09:09:55;11.77;;;4.13;;
82873;SDS011;72647;51.622;7.540;2024-01-06T09:11:55;12.05;;;4.32;;
82873;SDS011;72647;51.622;7.540;2024-01-06T09:13:56;12.55;;;4.72;;
82873;SDS011;72647;51.622;7.540;2024-01-06T09:15:56;13.80;;;5.50;;
82873;SDS011;72647;51.622;7.540;2024-01-06T09:17:56;17.43;;;6.17;;
82873;SDS011;72647;51.622;7.540;2024-01-06T09:19:56;12.80;;;4.60;;
82873;SDS011;72647;51.622;7.540;2024-01-06T09:21:56;14.10;;;5.23;;
82873;SDS011;72647;51.622;7.540;2024-01-06T09:23:57;15.73;;;6.27;;
82873;SDS011;72647;51.622;7.540;2024-01-06T09:25:57;18.07;;;5.90;;
82873;SDS011;72647;51.622;7.540;2024-01-06T09:27:57;14.95;;;5.57;;
82873;SDS011;72647;51.622;7.540;2024-01-06T09:29:58;15.95;;;5.95;;
82873;SDS011;72647;51.622;7.540;2024-01-06T09:31:59;17.80;;;6.00;;
82873;SDS011;72647;51.622;7.540;2024-01-06T09:34:02;19.23;;;6.13;;
82873;SDS011;72647;51.622;7.540;2024-01-06T09:36:02;17.27;;;6.32;;
82873;SDS011;72647;51.622;7.540;2024-01-06T09:38:03;21.10;;;5.95;;
82873;SDS011;72647;51.622;7.540;2024-01-06T09:40:03;22.23;;;6.85;;
82873;SDS011;72647;51.622;7.540;2024-01-06T09:42:04;16.98;;;6.75;;
82873;SDS011;72647;51.622;7.540;2024-01-06T09:44:04;21.65;;;6.85;;
82873;SDS011;72647;51.622;7.540;2024-01-06T09:46:15;19.55;;;6.32;;
82873;SDS011;72647;51.622;7.540;2024-01-06T09:48:16;23.02;;;7.53;;
82873;SDS011;72647;51.622;7.540;2024-01-06T09:50:19;21.17;;;6.15;;
82873;SDS011;72647;51.622;7.540;2024-01-06T09:52:21;23.02;;;7.03;;
82873;SDS011;72647;51.622;7.540;2024-01-06T09:54:22;21.95;;;7.07;;
82873;SDS011;72647;51.622;7.540;2024-01-06T09:56:25;21.52;;;6.95;;
82873;SDS011;72647;51.622;7.540;2024-01-06T09:58:25;22.88;;;7.95;;
82873;SDS011;72647;51.622;7.540;2024-01-06T10:00:30;22.05;;;7.55;;
82873;SDS011;72647;51.622;7.540;2024-01-06T10:02:30;21.87;;;7.93;;
82873;SDS011;72647;51.622;7.540;2024-01-06T10:04:31;19.23;;;6.40;;
82873;SDS011;72647;51.622;7.540;2024-01-06T10:06:32;24.45;;;8.50;;
82873;SDS011;72647;51.622;7.540;2024-01-06T10:08:33;23.37;;;7.30;;
82873;SDS011;72647;51.622;7.540;2024-01-06T10:10:33;24.38;;;8.60;;
82873;SDS011;72647;51.622;7.540;2024-01-06T10:12:34;22.35;;;8.80;;
82873;SDS011;72647;51.622;7.540;2024-01-06T10:14:37;22.23;;;8.40;;
82873;SDS011;72647;51.622;7.540;2024-01-06T10:16:38;28.23;;;9.00;;
82873;SDS011;72647;51.622;7.540;2024-01-06T10:18:39;24.42;;;8.60;;
82873;SDS011;72647;51.622;7.540;2024-01-06T10:20:39;25.95;;;9.25;;
82873;SDS011;72647;51.622;7.540;2024-01-06T10:22:42;26.53;;;9.30;;
82873;SDS011;72647;51.622;7.540;2024-01-06T10:24:42;23.10;;;8.10;;
82873;SDS011;72647;51.622;7.540;2024-01-06T10:26:43;28.88;;;9.50;;
82873;SDS011;72647;51.622;7.540;2024-01-06T10:28:43;28.27;;;10.10;;
82873;SDS011;72647;51.622;7.540;2024-01-06T10:30:43;21.50;;;8.18;;
82873;SDS011;72647;51.622;7.540;2024-01-06T10:32:44;22.90;;;8.00;;
82873;SDS011;72647;51.622;7.540;2024-01-06T10:34:44;23.83;;;8.23;;
82873;SDS011;72647;51.622;7.540;2024-01-06T10:36:45;22.15;;;8.07;;
82873;SDS011;72647;51.622;7.540;2024-01-06T10:38:45;21.67;;;8.70;;
82873;SDS011;72647;51.622;7.540;2024-01-06T10:40:58;24.15;;;8.50;;
82873;SDS011;72647;51.622;7.540;2024-01-06T10:42:59;24.80;;;7.72;;
82873;SDS011;72647;51.622;7.540;2024-01-06T10:45:00;25.63;;;8.35;;
82873;SDS011;72647;51.622;7.540;2024-01-06T10:47:00;25.38;;;8.15;;
82873;SDS011;72647;51.622;7.540;2024-01-06T10:49:01;21.60;;;7.68;;
82873;SDS011;72647;51.622;7.540;2024-01-06T10:51:02;20.00;;;6.78;;
82873;SDS011;72647;51.622;7.540;2024-01-06T10:53:07;16.98;;;6.15;;
82873;SDS011;72647;51.622;7.540;2024-01-06T10:55:08;23.17;;;6.75;;
82873;SDS011;72647;51.622;7.540;2024-01-06T10:57:08;18.40;;;7.00;;
82873;SDS011;72647;51.622;7.540;2024-01-06T10:59:09;23.38;;;8.20;;
82873;SDS011;72647;51.622;7.540;2024-01-06T11:01:11;20.13;;;7.80;;
82873;SDS011;72647;51.622;7.540;2024-01-06T11:03:12;20.75;;;7.90;;
82873;SDS011;72647;51.622;7.540;2024-01-06T11:05:13;16.77;;;6.75;;
82873;SDS011;72647;51.622;7.540;2024-01-06T11:07:15;17.45;;;6.78;;
82873;SDS011;72647;51.622;7.540;2024-01-06T11:09:19;19.30;;;6.90;;
82873;SDS011;72647;51.622;7.540;2024-01-06T11:11:24;18.98;;;6.25;;
82873;SDS011;72647;51.622;7.540;2024-01-06T11:13:26;20.05;;;7.18;;
82873;SDS011;72647;51.622;7.540;2024-01-06T11:15:42;17.23;;;5.82;;
82873;SDS011;72647;51.622;7.540;2024-01-06T11:17:52;16.10;;;6.63;;
82873;SDS011;72647;51.622;7.540;2024-01-06T11:19:53;16.85;;;5.63;;
82873;SDS011;72647;51.622;7.540;2024-01-06T11:24:23;15.35;;;5.85;;
82873;SDS011;72647;51.622;7.540;2024-01-06T11:26:26;14.82;;;4.82;;
82873;SDS011;72647;51.622;7.540;2024-01-06T11:28:27;15.13;;;5.57;;
82873;SDS011;72647;51.622;7.540;2024-01-06T11:30:27;12.30;;;4.33;;
82873;SDS011;72647;51.622;7.540;2024-01-06T11:32:30;13.38;;;5.13;;
82873;SDS011;72647;51.622;7.540;2024-01-06T11:34:36;11.50;;;4.78;;
82873;SDS011;72647;51.622;7.540;2024-01-06T11:36:37;11.73;;;4.50;;
82873;SDS011;72647;51.622;7.540;2024-01-06T11:38:38;12.43;;;4.90;;
82873;SDS011;72647;51.622;7.540;2024-01-06T11:40:39;13.20;;;4.75;;
82873;SDS011;72647;51.622;7.540;2024-01-06T11:42:42;11.18;;;4.95;;
82873;SDS011;72647;51.622;7.540;2024-01-06T11:44:43;13.85;;;4.78;;
82873;SDS011;72647;51.622;7.540;2024-01-06T11:46:43;15.70;;;5.72;;
82873;SDS011;72647;51.622;7.540;2024-01-06T11:48:45;14.35;;;4.60;;
82873;SDS011;72647;51.622;7.540;2024-01-06T11:50:50;15.43;;;5.32;;
82873;SDS011;72647;51.622;7.540;2024-01-06T11:52:51;14.68;;;5.80;;
82873;SDS011;72647;51.622;7.540;2024-01-06T11:54:54;11.30;;;4.30;;
82873;SDS011;72647;51.622;7.540;2024-01-06T11:56:55;11.90;;;4.07;;
82873;SDS011;72647;51.622;7.540;2024-01-06T11:58:57;13.98;;;5.15;;
82873;SDS011;72647;51.622;7.540;2024-01-06T12:00:57;14.50;;;5.25;;
82873;SDS011;72647;51.622;7.540;2024-01-06T12:02:58;14.57;;;5.10;;
82873;SDS011;72647;51.622;7.540;2024-01-06T12:04:58;14.30;;;5.28;;
82873;SDS011;72647;51.622;7.540;2024-01-06T12:07:08;14.43;;;5.30;;